KGZH

Evergreen Regional / Middleton Field Airport

Evergreen, Alabama, USA
METAR KGZH 190653Z AUTO 12003KT 5SM BR OVC004 14/12 A2997 RMK AO2 SLP147 T01390122
Observed Flight Rules
Jan-19 @ 06:53 UTC (20 minutes ago) Instrument Flight Rules
Wind Visibility Clouds Conditions
120° at 3 knots 5 miles
  • Overcast at 400' AGL
  • Mist
Temperatures Readings
Current 14°C / 57°F
Dewpoint 12°C / 54°F
Humidity 88%
Altimeter 29.97" Hg
Pressure 1014.7 hPa
Elevation 78
METAR KGZH 190653Z AUTO 12003KT 5SM BR OVC004 14/12 A2997 RMK AO2 SLP147 T01390122
Observed Flight Rules
Jan-19 @ 06:53 UTC
(20 minutes ago)
LIFR
Wind Visibility
120° at 3 knots 5 miles
Clouds
  • Overcast at 400' AGL
Conditions
  • Mist
Temperature Dewpoint
14°C / 57°F 12°C / 54°F
Humidity Altimeter Pressure
88% 29.97" Hg 1014.7 hPa